Whale Point, California Weather observations

Data are for observation ending at time listed.
 Day   Time    Ave.   Ave.  Ave.  Vector   Max.   Stn.    Total    Solar   Ave.  
  of    of     Air    Rel.  Wind   Wind    Wind   Baro.  Precip.   Rad.    Soil  
Year   Day     Temp.  Hum.  Speed  Dir.    Gust   Pres.                    Temp. 
2015   (PST)    F      %     mph   deg.    mph     mb.     in.     W/m2     F   
------------------------------------------------------------------------------
 211    8:40   58.0    96    3.5   211      6.9   996.3    0.00     287    74.4
 211    8:50   58.3    96    3.2   213      5.2   996.3    0.00     329    74.3
 211    9:00   58.4    96    4.1   214      7.1   996.3    0.00     370    74.3
 211    9:10   58.4    95    3.6   234      6.1   996.6    0.00     316    74.3
 211    9:20   58.7    95    4.1   226      6.3   996.6    0.00     425    74.3
 211    9:30   59.4    93    4.0   217      7.5   996.6    0.00     415    74.3
 211    9:40   59.6    91    3.4   211      7.3   996.6    0.00     443    74.3
 211    9:50   59.9    89    3.5   220      8.0   996.6    0.00     414    74.3
 211   10:00   60.0    90    4.0   200      7.7   996.6    0.00     700    74.3
 211   10:10   61.4    86    4.4   204      9.5   996.6    0.00     755    74.3
 211   10:20   60.5    87    4.6   215      9.6   996.6    0.00     535    74.3
 211   10:30   60.8    87    3.9   220      8.1   996.6    0.00     648    74.3
 211   10:40   60.6    86    4.0   226      7.7   996.6    0.00     406    74.3
 211   10:50   60.6    87    5.0   212      9.0   996.6    0.00     625    74.4
 211   11:00   60.8    87    4.9   215     11.0   996.6    0.00     810    74.4
 211   11:10   61.3    86    5.2   228      9.2   996.6    0.00     740    74.4
 211   11:20   61.3    85    5.1   227     10.1   996.6    0.00     589    74.4
 211   11:30   61.7    84    4.8   219      9.2   997.0    0.00     717    74.5
 211   11:40   63.0    82    4.6   214      9.9   996.6    0.00     942    74.5
 211   11:50   63.1    82    4.2   223      9.9   996.6    0.00     933    74.6
 211   12:00   62.8    81    5.6   215     12.6   996.6    0.00    1006    74.6
 211   12:10   63.3    81    4.9   215     11.8   996.3    0.00    1005    74.7
 211   12:20   64.2    78    4.0   230      9.1   996.3    0.00     719    74.8
 211   12:30   63.6    79    4.9   247      9.9   995.9    0.00     403    74.9
 211   12:40   62.6    81    3.8   215      8.2   995.9    0.00     309    74.9
 211   12:50   62.7    81    5.6   235     11.7   995.6    0.00     795    75.1
 211   13:00   64.3    78    5.6   228      9.3   995.6    0.00     954    75.1
 211   13:10   64.3    78    5.7   233      9.3   995.6    0.00     961    75.3
 211   13:20   65.4    75    4.5   238     10.4   995.6    0.00     953    75.4
 211   13:30   64.0    78    5.9   229     10.2   995.3    0.00     943    75.5
 211   13:40   64.2    78    5.7   231     11.0   995.3    0.00     929    75.6
 211   13:50   64.6    77    5.7   235     11.4   995.3    0.00     915    75.7
 211   14:00   63.8    79    6.6   237     12.9   995.3    0.00     899    75.9
 211   14:10   64.0    78    5.9   241     10.9   995.3    0.00     887    76.0
 211   14:20   64.7    77    5.2   235      8.5   995.3    0.00     853    76.2
 211   14:30   65.1    76    5.1   225     10.1   995.3    0.00     849    76.3
 211   14:40   64.4    77    5.8   213     16.1   995.3    0.00     831    76.5
 211   14:50   64.6    76    4.7   229     11.0   995.3    0.00     803    76.6
 211   15:00   65.2    75    5.1   211     12.9   995.3    0.00     778    76.8
 211   15:10   65.0    76    5.1   220     10.1   995.3    0.00     756    77.0
 211   15:20   64.4    77    6.1   226     10.7   995.3    0.00     733    77.1
 211   15:30   63.8    78    6.1   226     12.0   995.3    0.00     691    77.3
 211   15:40   66.3    73    4.4   253     10.5   995.3    0.00     661    77.5
 211   15:50   65.2    76    4.2   236      9.6   995.3    0.00     630    77.7
 211   16:00   64.8    77    5.4   207     11.1   995.3    0.00     601    77.8
 211   16:10   64.2    78    5.6   240     11.5   995.3    0.00     568    78.0
 211   16:20   64.4    78    5.6   237     11.1   994.9    0.00     535    78.2
 211   16:30   64.7    78    4.4   223     10.2   994.9    0.00     501    78.4
 211   16:40   64.5    78    5.8   238     12.1   994.9    0.00     412    78.5
 211   16:50   64.0    79    5.0   228      8.5   994.9    0.00     105    78.7
 211   17:00   65.1    77    5.3   247     10.4   995.3    0.00     262    78.9
 211   17:10   65.5    76    4.0   254      7.4   995.3    0.00     199    79.0
 211   17:20   65.5    76    5.1   236      8.8   994.9    0.00     272    79.2
 211   17:30   63.9    79    4.2   248      8.4   994.9    0.00     293    79.3
 211   17:40   64.8    78    3.7   245      6.8   994.9    0.00     262    79.5
 211   17:50   64.8    77    3.7   233      6.4   994.9    0.00     244    79.6
 211   18:00   66.0    75    2.7   243      6.9   994.6    0.00     236    79.7
 211   18:10   65.6    75    3.9   241      6.8   994.6    0.00     215    79.8
 211   18:20   64.9    77    3.5   227      6.2   994.6    0.00     178    80.0
 211   18:30   64.4    78    3.0   230      5.6   994.6    0.00     120    80.1
 211   18:40   64.0    79    2.2   251      5.0   994.6    0.00      67    80.2
 211   18:50   63.4    80    2.6   224      6.1   994.6    0.00      45    80.3
 211   19:00   62.5    82    1.4   208      4.0   994.6    0.00      21    80.4
 211   19:10   62.0    83    0.1   346      1.2   994.6    0.00      11    80.4
 211   19:20   61.8    84    1.4   213      4.2   994.6    0.00       3    80.5
 211   19:30   61.5    85    1.3   208      3.2   994.9    0.00       1    80.6
 211   19:40   61.3    85    1.4   192      2.5   994.9    0.00       0    80.6
 211   19:50   61.1    86    1.9   180      3.9   994.9    0.00       0    80.7
 211   20:00   61.0    87    1.9   217      3.4   994.9    0.00       0    80.7
 211   20:10   60.8    87    1.5   209      3.9   995.3    0.00       0    80.7
 211   20:20   60.6    88    2.0   171      4.2   995.3    0.00       0    80.7
 211   20:30   60.4    88    1.5   170      3.9   995.3    0.00       0    80.7
 211   20:40   60.2    89    1.4   207      3.6   995.3    0.00       0    80.7
 211   20:50   60.0    90    0.2   242      1.8   995.6    0.00       0    80.6
 211   21:00   59.8    90    0.2   215      1.0   995.6    0.00       0    80.6
 211   21:10   59.8    90    0.2    38      1.2   995.6    0.00       0    80.6
 211   21:20   59.7    90    0.2    32      1.6   995.6    0.00       0    80.5
 211   21:30   59.7    91    0.2   341      1.1   995.3    0.00       0    80.5
 211   21:40   59.6    91    0.4   333      2.3   995.3    0.00       0    80.4
 211   21:50   59.6    91    0.6    44      2.5   995.3    0.00       0    80.4
 211   22:00   59.6    91    0.0   146      0.5   995.3    0.00       0    80.3
 211   22:10   59.6    91    0.5    32      1.5   995.3    0.00       0    80.3
 211   22:20   59.5    91    0.7   169      2.0   995.3    0.00       0    80.2
 211   22:30   59.5    91    0.7   178      1.4   995.3    0.00       0    80.1
 211   22:40   59.4    91    0.4   126      1.5   995.3    0.00       0    80.1
 211   22:50   59.6    91    0.9   137      3.3   994.9    0.00       0    80.0
 211   23:00   59.8    90    2.1   183      4.4   994.9    0.00       0    79.9
 211   23:10   59.7    90    3.4   190      6.3   994.9    0.00       0    79.8
 211   23:20   59.6    91    3.9   163      6.6   994.9    0.00       0    79.8
 211   23:30   59.9    91    2.2   108      5.0   995.3    0.00       0    79.7
 211   23:40   59.9    90    0.6    31      1.6   995.3    0.00       0    79.6
 211   23:50   59.8    90    0.4   133      1.0   995.3    0.00       0    79.5
 212    0:00   59.6    90    0.1   177      0.9   994.9    0.00       0    79.4
 212    0:10   59.5    90    0.6   169      1.4   994.9    0.00       0    79.3
 212    0:20   59.3    90    0.4   184      1.6   995.3    0.00       0    79.3
 212    0:30   59.1    91    1.0   184      2.6   995.3    0.00       0    79.2
 212    0:40   58.8    92    2.4   193      4.5   995.3    0.00       0    79.1
 212    0:50   58.9    92    0.8   215      3.1   995.3    0.00       0    79.0
 212    1:00   58.8    93    0.6   320      1.5   995.3    0.00       0    78.9
 212    1:10   58.7    93    0.5   328      1.5   995.3    0.00       0    78.8
 212    1:20   58.7    93    0.8   308      2.2   995.3    0.00       0    78.7
 212    1:30   58.9    93    0.7   244      2.9   995.3    0.00       0    78.6
 212    1:40   59.0    93    0.7   252      2.6   995.3    0.00       0    78.5
 212    1:50   58.9    94    0.2   300      1.8   995.3    0.00       0    78.5
 212    2:00   58.9    94    0.8   245      2.0   995.3    0.00       0    78.4
 212    2:10   58.9    94    0.6   245      1.9   995.3    0.00       0    78.3
 212    2:20   58.9    94    0.4   252      1.1   995.3    0.00       0    78.2
 212    2:30   58.9    94    1.1   232      2.3   995.3    0.00       0    78.1
 212    2:40   58.9    94    0.9   240      2.1   995.6    0.00       0    78.0
 212    2:50   58.9    94    0.7   224      1.9   995.6    0.00       0    78.0
 212    3:00   58.8    94    0.7   202      2.3   995.6    0.00       0    77.9
 212    3:10   58.9    94    0.1   190      0.8   995.6    0.00       0    77.8
 212    3:20   58.8    94    0.5   231      1.4   995.3    0.00       0    77.7
 212    3:30   58.8    95    0.4   251      2.2   995.3    0.00       0    77.6
 212    3:40   58.8    95    0.8   239      1.5   995.3    0.00       0    77.6
 212    3:50   58.8    95    1.2   227      2.0   995.3    0.00       0    77.5
 212    4:00   58.7    95    0.7   250      1.5   995.3    0.00       0    77.4
 212    4:10   58.7    95    0.8   245      2.5   995.3    0.00       0    77.4
 212    4:20   58.6    95    1.8   220      4.1   995.6    0.00       0    77.3
 212    4:30   58.6    95    1.1   150      3.4   995.6    0.00       0    77.2
 212    4:40   58.6    95    0.7    18      1.7   995.6    0.00       0    77.2
 212    4:50   58.6    95    0.7   330      1.8   995.6    0.00       0    77.1
 212    5:00   58.6    95    0.8   306      2.1   995.3    0.00       0    77.1
 212    5:10   58.7    95    0.4   233      2.3   995.6    0.00       1    77.0
 212    5:20   58.6    95    0.7   121      1.7   995.6    0.00       2    76.9
 212    5:30   58.6    95    0.8   193      2.1   995.6    0.00       4    76.9
 212    5:40   58.6    95    0.3   187      2.5   995.6    0.00       8    76.8
 212    5:50   58.6    95    0.3   174      1.2   995.6    0.00      10    76.7
 212    6:00   58.7    95    0.5   261      1.3   995.6    0.00      16    76.7
 212    6:10   58.7    95    0.3   267      1.0   995.6    0.00      22    76.6
 212    6:20   58.8    96    0.2     0      1.2   995.6    0.00      32    76.6
 212    6:30   58.8    96    0.1   273      1.2   995.6    0.00      49    76.5
 212    6:40   59.0    96    0.3   290      1.8   995.6    0.00      74    76.4
 212    6:50   59.2    96    0.5   312      1.8   995.6    0.00     115    76.4
 212    7:00   59.3    95    2.0   214      3.4   995.6    0.00     110    76.3
 212    7:10   59.1    95    2.4   217      3.9   995.9    0.00      73    76.3
 212    7:20   59.0    95    2.9   222      4.9   995.9    0.00      79    76.2
 212    7:30   58.9    95    2.2   234      3.4   996.3    0.00      91    76.2
 212    7:40   58.9    95    1.8   243      2.9   996.3    0.00      51    76.1
 212    7:50   58.9    95    1.4   226      2.8   996.3    0.00      90    76.1
 212    8:00   59.2    96    2.0   229      4.2   995.9    0.00     149    76.0
 212    8:10   59.2    95    1.8   253      4.2   995.9    0.00     136    76.0
 212    8:20   59.3    95    2.6   266      4.7   995.9    0.00     157    75.9
 212    8:30   59.2    95    3.0   251      5.3   995.9    0.00     166    75.9

Return to Whale Point graphs page.


Western Regional Climate Center,wrcc@dri.edu